createdAt,value
2022-11-17T05:34:53.654Z,1.20
2022-11-17T05:37:21.808Z,1.60
2022-11-17T05:39:49.911Z,1.13
2022-11-17T05:42:18.082Z,1.20
2022-11-17T05:44:47.977Z,1.30
2022-11-17T05:47:16.253Z,1.27
2022-11-17T05:49:45.732Z,1.10
2022-11-17T05:52:13.985Z,1.40
2022-11-17T05:54:42.120Z,1.20
2022-11-17T05:57:13.767Z,1.10
2022-11-17T05:59:45.821Z,1.20
2022-11-17T06:07:14.850Z,1.00
2022-11-17T06:09:43.751Z,1.10
2022-11-17T06:12:12.782Z,1.10
2022-11-17T06:14:40.932Z,1.00
2022-11-17T06:22:18.611Z,1.10
2022-11-17T06:24:47.464Z,1.20
2022-11-17T06:27:17.195Z,1.33
2022-11-17T06:29:46.864Z,1.40
2022-11-17T06:32:16.620Z,1.30
2022-11-17T06:34:50.557Z,1.20
2022-11-17T06:37:24.973Z,1.40
2022-11-17T06:39:53.437Z,1.20
2022-11-17T06:42:41.756Z,1.30
2022-11-17T06:45:10.726Z,1.00
2022-11-17T06:47:38.866Z,1.20
2022-11-17T07:07:26.036Z,1.10
2022-11-17T07:09:55.602Z,1.10
2022-11-17T07:12:23.983Z,1.10
2022-11-17T07:14:52.182Z,1.20
2022-11-17T07:44:34.348Z,1.53
2022-11-17T07:47:02.768Z,1.33
2022-11-17T07:49:31.005Z,1.30
2022-11-17T07:51:59.200Z,1.40
2022-11-17T07:54:27.481Z,1.53
2022-11-17T07:59:23.779Z,1.70
2022-11-17T08:01:53.349Z,1.40
2022-11-17T15:29:19.027Z,3.17
2022-11-17T15:31:47.380Z,2.77
2022-11-17T15:34:20.276Z,2.20
2022-11-17T15:36:49.198Z,2.33
2022-11-17T15:39:17.781Z,2.50
2022-11-17T15:41:46.516Z,2.23
2022-11-17T15:44:15.172Z,2.07
2022-11-17T15:46:47.624Z,2.47
2022-11-17T15:49:16.735Z,2.43
2022-11-17T15:51:45.294Z,2.47
2022-11-17T15:54:18.435Z,2.70
2022-11-17T15:56:48.517Z,2.13
2022-11-17T15:59:16.957Z,2.47
2022-11-17T16:01:46.889Z,2.30
2022-11-17T16:04:16.430Z,2.40
2022-11-17T16:06:46.307Z,2.60
2022-11-17T16:09:15.768Z,2.47
2022-11-17T16:11:44.657Z,2.53
2022-11-17T16:14:14.806Z,2.20
2022-11-17T16:16:43.793Z,3.10
2022-11-17T16:21:41.946Z,3.07
2022-11-17T16:24:11.834Z,3.10
2022-11-17T16:26:40.084Z,3.40
2022-11-17T16:29:08.900Z,3.17
2022-11-17T16:31:38.568Z,3.87
2022-11-17T16:34:08.508Z,3.23
2022-11-17T16:36:40.917Z,3.20
2022-11-17T16:39:10.870Z,2.90
2022-11-17T16:41:41.020Z,3.20
2022-11-17T16:44:11.896Z,3.87
2022-11-17T16:46:43.120Z,3.60
2022-11-17T16:49:13.370Z,2.90
2022-11-17T16:51:48.228Z,3.20
2022-11-17T16:54:17.945Z,4.00
2022-11-17T16:56:46.239Z,4.67
2022-11-17T16:59:15.168Z,7.30
2022-11-17T17:01:43.621Z,5.73
2022-11-17T17:04:13.177Z,4.87
2022-11-17T17:06:43.850Z,4.70
2022-11-17T17:09:14.212Z,7.20
2022-11-17T17:11:43.241Z,6.87
2022-11-17T17:14:14.478Z,5.70
2022-11-17T17:16:43.354Z,4.40
2022-11-17T17:19:14.134Z,5.80
2022-11-17T17:21:45.495Z,6.10
2022-11-17T17:24:14.020Z,6.83
2022-11-17T17:26:42.460Z,5.17
2022-11-17T17:29:11.942Z,4.53
2022-11-17T17:34:11.406Z,3.80
2022-11-17T17:36:40.055Z,4.37
2022-11-17T17:39:14.199Z,5.57
2022-11-17T17:41:44.198Z,4.43
2022-11-17T17:44:16.303Z,5.53
2022-11-17T17:46:45.190Z,6.00
2022-11-17T17:49:13.904Z,7.17
2022-11-17T17:51:44.325Z,5.73
2022-11-17T17:54:17.904Z,3.87
2022-11-17T17:56:47.237Z,3.23
2022-11-17T17:59:16.634Z,2.80
2022-11-17T18:01:47.790Z,3.30
2022-11-17T18:04:17.073Z,2.60
2022-11-17T18:06:48.027Z,2.60
2022-11-17T18:09:20.493Z,2.87
2022-11-17T18:11:50.571Z,2.77
2022-11-17T18:14:22.396Z,2.40
2022-11-17T18:16:51.056Z,2.60
2022-11-17T18:19:20.002Z,2.53
2022-11-17T18:21:48.282Z,2.57
2022-11-17T18:24:18.134Z,2.80
2022-11-17T18:26:46.420Z,3.00
2022-11-17T18:29:18.254Z,3.10
2022-11-17T18:31:48.316Z,2.90
2022-11-17T18:34:19.033Z,2.90
2022-11-17T18:36:47.561Z,2.93
2022-11-17T18:39:18.349Z,3.63
2022-11-17T18:41:47.121Z,3.70
2022-11-17T18:44:16.785Z,3.60
2022-11-17T20:09:35.650Z,2.00
2022-11-17T20:16:30.492Z,2.60
2022-11-17T20:22:28.300Z,2.77
2022-11-17T20:35:13.832Z,2.00
2022-11-17T21:52:01.035Z,0.80
